Time;durP1;ratioP1;P1;durP2;ratioP2;P2;SDS_P1;SDS_P2;PMS_P1;PMS_P2;Temp;Humidity;BMP_temperature;BMP_pressure;BME280_temperature;BME280_humidity;BME280_pressure;Samples;Min_cycle;Max_cycle;Signal;HPM_P1;HPM_P2
2021/09/01 00:01:11;;;;;;;11.57;7.53;;;;;;;22.86;55.39;99745.00;5125332;28;20055;-71
2021/09/01 00:03:36;;;;;;;11.55;7.85;;;;;;;22.93;55.05;99751.09;5123844;28;20047;-71
2021/09/01 00:06:02;;;;;;;14.73;8.40;;;;;;;22.98;55.00;99742.28;5125249;28;20347;-71
2021/09/01 00:08:27;;;;;;;16.38;8.55;;;;;;;22.95;55.33;99746.28;5124015;28;20054;-71
2021/09/01 00:10:52;;;;;;;14.95;7.72;;;;;;;22.88;55.33;99748.28;5105796;28;20035;-68
2021/09/01 00:13:18;;;;;;;11.93;7.88;;;;;;;22.81;55.24;99753.00;5121766;28;20023;-68
2021/09/01 00:15:43;;;;;;;14.18;8.27;;;;;;;22.83;55.39;99759.81;5123421;28;20321;-69
2021/09/01 00:18:09;;;;;;;11.13;7.47;;;;;;;22.81;56.14;99758.41;5108733;28;20016;-71
2021/09/01 00:20:34;;;;;;;14.05;7.57;;;;;;;22.83;56.63;99765.22;5128264;28;20044;-68
2021/09/01 00:23:00;;;;;;;13.13;8.18;;;;;;;22.75;56.91;99757.47;5124464;28;20317;-71
2021/09/01 00:25:25;;;;;;;11.52;7.72;;;;;;;22.71;56.77;99759.00;5126556;27;20035;-69
2021/09/01 00:27:51;;;;;;;12.18;8.65;;;;;;;22.68;56.05;99759.50;5125279;27;20250;-71
2021/09/01 00:30:16;;;;;;;13.55;8.38;;;;;;;22.52;56.46;99735.97;5129736;27;20270;-68
2021/09/01 00:32:41;;;;;;;12.65;7.82;;;;;;;22.59;56.70;99753.66;5127548;27;20038;-71
2021/09/01 00:35:07;;;;;;;14.95;7.93;;;;;;;22.51;57.69;99754.03;5131210;27;20039;-69
2021/09/01 00:37:33;;;;;;;13.70;8.23;;;;;;;22.47;57.37;99754.75;5126644;27;20031;-70
2021/09/01 00:39:58;;;;;;;12.95;7.22;;;;;;;22.46;57.31;99745.84;5130483;27;20225;-68
2021/09/01 00:42:24;;;;;;;11.02;7.10;;;;;;;22.54;56.23;99755.44;5126301;27;20027;-71
2021/09/01 00:44:49;;;;;;;13.65;7.35;;;;;;;22.62;56.00;99752.34;5130353;27;20031;-69
2021/09/01 00:47:21;;;;;;;12.55;7.25;;;;;;;22.60;55.92;99751.78;5128744;27;20259;-68
2021/09/01 00:49:47;;;;;;;12.32;7.47;;;;;;;22.52;55.53;99757.56;5129530;27;20038;-68
2021/09/01 00:52:13;;;;;;;11.95;7.57;;;;;;;22.56;55.14;99745.22;5123255;27;20031;-69
2021/09/01 00:54:40;;;;;;;14.05;8.27;;;;;;;22.33;56.89;99754.22;5128705;27;20258;-71
2021/09/01 00:57:07;;;;;;;13.65;8.02;;;;;;;22.31;57.01;99750.94;5129085;27;20040;-68
2021/09/01 00:59:35;;;;;;;14.38;8.90;;;;;;;22.40;56.81;99751.38;5127625;27;20031;-70
2021/09/01 01:02:04;;;;;;;21.17;9.18;;;;;;;22.38;56.98;99751.59;5111459;27;20035;-68
2021/09/01 01:04:34;;;;;;;11.93;8.63;;;;;;;22.44;56.89;99747.13;5128974;27;20051;-71
2021/09/01 01:07:07;;;;;;;13.52;8.27;;;;;;;22.26;56.40;99751.63;5126181;27;20036;-71
2021/09/01 01:09:36;;;;;;;12.95;8.00;;;;;;;22.34;55.59;99760.41;5129278;27;20034;-69
2021/09/01 01:12:20;;;;;;;10.00;7.22;;;;;;;22.30;55.08;99751.97;5125643;27;20031;-68
2021/09/01 01:14:48;;;;;;;11.48;6.57;;;;;;;22.36;55.27;99761.81;5128669;27;20077;-71
2021/09/01 01:17:17;;;;;;;12.82;7.28;;;;;;;22.34;54.91;99757.72;5123779;27;20123;-71
2021/09/01 01:19:47;;;;;;;14.05;7.28;;;;;;;22.32;54.92;99757.13;5124720;27;20023;-71
2021/09/01 01:22:15;;;;;;;10.68;6.93;;;;;;;22.37;55.16;99758.06;5124627;27;20035;-68
2021/09/01 01:24:52;;;;;;;15.43;7.13;;;;;;;22.40;55.18;99762.16;5128633;27;20035;-69
2021/09/01 01:27:30;;;;;;;11.55;7.43;;;;;;;22.25;55.75;99755.41;5126056;27;20047;-68
2021/09/01 01:30:04;;;;;;;10.20;7.65;;;;;;;22.27;55.94;99761.38;5129798;27;20049;-71
2021/09/01 01:32:30;;;;;;;11.18;7.15;;;;;;;22.37;55.66;99766.16;5123754;27;20095;-68
2021/09/01 01:34:55;;;;;;;13.05;7.65;;;;;;;22.35;56.24;99764.75;5125599;27;20047;-71
2021/09/01 01:37:21;;;;;;;12.80;8.30;;;;;;;22.36;56.87;99758.31;5127326;27;20027;-71
2021/09/01 01:39:46;;;;;;;11.73;8.27;;;;;;;22.19;57.02;99756.34;5124898;27;20039;-68
2021/09/01 01:42:12;;;;;;;10.57;7.05;;;;;;;22.09;57.00;99763.41;5128117;27;20039;-68
2021/09/01 01:44:37;;;;;;;11.70;7.68;;;;;;;21.87;58.07;99749.69;5129363;27;20051;-71
2021/09/01 01:47:03;;;;;;;21.58;8.18;;;;;;;21.82;58.34;99766.53;5126313;27;20032;-68
2021/09/01 01:49:29;;;;;;;16.48;8.63;;;;;;;21.61;59.09;99767.09;5127920;27;20019;-71
2021/09/01 01:51:54;;;;;;;13.48;9.40;;;;;;;21.35;60.20;99760.28;5130845;27;20255;-69
2021/09/01 01:54:20;;;;;;;14.88;8.82;;;;;;;21.34;59.41;99764.03;5124142;27;20027;-68
2021/09/01 01:56:45;;;;;;;18.27;9.07;;;;;;;21.34;59.42;99756.75;5125515;27;20031;-70
2021/09/01 01:59:11;;;;;;;13.38;8.40;;;;;;;21.45;59.30;99763.22;5123538;27;20053;-68
2021/09/01 02:01:36;;;;;;;14.90;8.85;;;;;;;21.51;59.45;99766.84;5124454;27;20035;-68
2021/09/01 02:04:02;;;;;;;16.85;8.40;;;;;;;21.23;59.77;99754.06;5125732;27;20035;-71
2021/09/01 02:06:27;;;;;;;19.88;9.20;;;;;;;20.64;61.46;99740.34;5130720;27;20085;-70
2021/09/01 02:08:53;;;;;;;12.90;7.97;;;;;;;20.78;59.89;99715.94;5134450;27;20035;-70
2021/09/01 02:11:18;;;;;;;14.18;7.18;;;;;;;21.17;58.81;99744.16;5130853;27;20336;-69
2021/09/01 02:13:44;;;;;;;12.57;8.10;;;;;;;21.07;59.56;99731.28;5125695;27;20035;-71
2021/09/01 02:16:09;;;;;;;14.88;7.50;;;;;;;21.04;59.73;99756.78;5127411;27;20321;-71
2021/09/01 02:18:34;;;;;;;12.45;8.50;;;;;;;20.99;60.32;99762.03;5126327;27;20045;-69
2021/09/01 02:21:00;;;;;;;11.80;7.85;;;;;;;21.14;60.26;99766.16;5123998;27;20039;-71
2021/09/01 02:23:25;;;;;;;16.45;8.52;;;;;;;21.18;59.78;99756.59;5125626;27;20029;-68
2021/09/01 02:25:51;;;;;;;12.85;7.82;;;;;;;21.21;59.42;99756.13;5124430;27;20160;-68
2021/09/01 02:28:16;;;;;;;12.77;7.45;;;;;;;21.42;58.42;99763.69;5123777;27;20038;-71
2021/09/01 02:30:42;;;;;;;10.23;6.25;;;;;;;21.59;57.23;99761.13;5125882;27;20034;-69
2021/09/01 02:33:07;;;;;;;13.43;6.65;;;;;;;21.22;56.81;99761.31;5128015;27;20050;-71
2021/09/01 02:35:33;;;;;;;8.57;5.95;;;;;;;21.47;55.65;99765.69;5125659;27;20043;-71
2021/09/01 02:37:58;;;;;;;7.50;5.00;;;;;;;21.50;55.09;99770.59;5130346;27;20267;-71
2021/09/01 02:40:24;;;;;;;11.07;5.00;;;;;;;21.29;55.58;99770.09;5122306;27;20034;-68
2021/09/01 02:42:49;;;;;;;10.52;5.07;;;;;;;21.20;54.88;99763.38;5126934;27;20023;-69
2021/09/01 02:45:17;;;;;;;11.75;5.25;;;;;;;21.21;54.79;99766.91;5123602;27;20023;-69
2021/09/01 02:47:46;;;;;;;12.55;4.82;;;;;;;21.06;54.99;99769.19;5125501;27;20108;-71
2021/09/01 02:50:12;;;;;;;12.25;4.97;;;;;;;20.96;55.32;99784.03;5121528;28;20042;-71
2021/09/01 02:52:38;;;;;;;12.32;4.85;;;;;;;20.85;55.51;99782.13;5128249;27;20037;-71
2021/09/01 02:55:04;;;;;;;8.02;4.38;;;;;;;20.89;55.44;99787.88;5123534;27;20353;-68
2021/09/01 02:57:30;;;;;;;9.02;4.93;;;;;;;21.10;54.89;99775.75;5126636;27;20042;-71
2021/09/01 02:59:55;;;;;;;9.25;4.95;;;;;;;21.06;54.87;99782.66;5122135;27;20027;-68
2021/09/01 03:02:21;;;;;;;9.82;5.43;;;;;;;21.10;54.90;99775.75;5127760;27;20394;-71
2021/09/01 03:04:46;;;;;;;8.35;4.63;;;;;;;21.32;53.82;99784.97;5122939;27;20333;-69
2021/09/01 03:07:12;;;;;;;9.48;5.40;;;;;;;21.33;54.25;99787.44;5127891;27;20445;-68
2021/09/01 03:09:37;;;;;;;7.38;4.68;;;;;;;21.44;53.63;99793.09;5122177;27;20316;-71
2021/09/01 03:12:03;;;;;;;9.73;5.10;;;;;;;21.28;53.99;99787.31;5125461;27;20033;-69
2021/09/01 03:14:29;;;;;;;9.65;4.90;;;;;;;21.46;53.46;99794.50;5123922;27;20043;-69
2021/09/01 03:16:55;;;;;;;10.48;4.72;;;;;;;21.34;53.85;99805.25;5124935;27;20035;-71
2021/09/01 03:19:22;;;;;;;12.85;5.25;;;;;;;21.28;53.93;99803.47;5126470;27;20039;-71
2021/09/01 03:21:47;;;;;;;9.98;5.05;;;;;;;21.20;53.89;99795.69;5125663;27;20042;-68
2021/09/01 03:24:12;;;;;;;11.32;5.47;;;;;;;21.15;54.16;99806.34;5135049;27;20283;-71
2021/09/01 03:26:38;;;;;;;10.63;5.03;;;;;;;21.21;54.30;99808.09;5122083;27;20398;-71
2021/09/01 03:29:03;;;;;;;15.93;5.00;;;;;;;21.28;53.96;99811.56;5125371;28;20319;-69
2021/09/01 03:31:29;;;;;;;13.27;5.38;;;;;;;21.18;54.64;99816.66;5125710;27;20311;-68
2021/09/01 03:33:54;;;;;;;8.85;4.68;;;;;;;21.13;54.91;99813.81;5132810;27;20027;-69
2021/09/01 03:36:20;;;;;;;9.73;5.30;;;;;;;21.45;53.92;99814.41;5126851;28;20027;-71
2021/09/01 03:38:46;;;;;;;11.27;5.80;;;;;;;21.38;54.04;99820.94;5125834;28;20020;-71
2021/09/01 03:41:11;;;;;;;12.50;5.72;;;;;;;21.36;54.37;99826.56;5125213;28;20064;-69
2021/09/01 03:43:37;;;;;;;9.55;5.47;;;;;;;21.21;54.74;99820.75;5123221;28;20030;-68
2021/09/01 03:46:02;;;;;;;15.55;5.95;;;;;;;21.39;54.56;99826.09;5108146;28;20031;-69
2021/09/01 03:48:28;;;;;;;14.55;5.63;;;;;;;21.27;54.73;99831.47;5123594;28;20257;-71
2021/09/01 03:50:53;;;;;;;8.70;5.05;;;;;;;21.26;54.95;99839.75;5127205;28;20325;-68
2021/09/01 03:53:20;;;;;;;15.90;5.50;;;;;;;21.44;54.14;99834.31;5123856;27;20034;-71
2021/09/01 03:55:46;;;;;;;11.57;5.35;;;;;;;21.29;54.75;99837.44;5124763;28;20036;-68
2021/09/01 03:58:12;;;;;;;11.65;5.72;;;;;;;21.32;54.75;99836.97;5123164;28;20035;-69
2021/09/01 04:00:42;;;;;;;18.48;6.22;;;;;;;21.21;54.76;99835.03;5126690;27;20443;-71
2021/09/01 04:03:07;;;;;;;13.38;5.05;;;;;;;21.35;54.09;99835.69;5129206;27;20023;-68
2021/09/01 04:05:33;;;;;;;14.02;5.50;;;;;;;21.29;53.89;99847.38;5131339;27;20027;-69
2021/09/01 04:07:58;;;;;;;12.10;5.03;;;;;;;21.49;53.65;99837.13;5125452;27;20598;-71
2021/09/01 04:10:24;;;;;;;21.40;6.35;;;;;;;21.57;52.97;99849.44;5128695;27;20035;-68
2021/09/01 04:12:49;;;;;;;11.13;5.65;;;;;;;21.48;52.99;99843.56;5128846;27;20031;-68
2021/09/01 04:15:15;;;;;;;22.52;5.22;;;;;;;21.55;53.09;99848.88;5126119;27;20039;-71
2021/09/01 04:17:40;;;;;;;12.25;5.20;;;;;;;21.50;53.08;99840.66;5132412;27;20031;-71
2021/09/01 04:20:07;;;;;;;10.73;5.28;;;;;;;21.50;53.00;99844.16;5126611;27;20571;-71
2021/09/01 04:22:33;;;;;;;11.57;5.10;;;;;;;21.69;52.36;99844.91;5130999;27;20068;-70
2021/09/01 04:24:58;;;;;;;12.35;4.80;;;;;;;21.54;52.87;99842.66;5124899;27;20381;-71
2021/09/01 04:27:24;;;;;;;10.05;4.95;;;;;;;21.66;52.55;99854.28;5130096;27;20241;-70
2021/09/01 04:29:49;;;;;;;8.93;4.68;;;;;;;21.76;52.11;99855.59;5135829;27;20297;-69
2021/09/01 04:32:15;;;;;;;10.68;5.10;;;;;;;21.66;52.04;99853.47;5137776;27;20081;-71
2021/09/01 04:34:40;;;;;;;13.52;4.90;;;;;;;21.65;52.49;99855.31;5132552;27;20309;-71
2021/09/01 04:37:06;;;;;;;9.32;4.35;;;;;;;21.79;52.09;99857.81;5136089;27;20187;-71
2021/09/01 04:39:31;;;;;;;16.35;4.80;;;;;;;21.72;52.70;99860.63;5136166;27;20042;-68
2021/09/01 04:41:57;;;;;;;10.40;4.53;;;;;;;21.90;52.12;99855.16;5136563;27;20029;-68
2021/09/01 04:44:22;;;;;;;11.55;5.07;;;;;;;21.88;52.62;99859.97;5135522;27;20027;-70
2021/09/01 04:46:48;;;;;;;7.82;4.60;;;;;;;22.05;52.19;99854.72;5118561;27;20340;-71
2021/09/01 04:49:14;;;;;;;7.22;4.35;;;;;;;22.04;52.39;99854.97;5137601;27;20320;-66
2021/09/01 04:51:39;;;;;;;12.93;4.80;;;;;;;22.28;51.49;99862.00;5134959;27;20034;-71
2021/09/01 04:54:04;;;;;;;11.85;4.28;;;;;;;22.21;51.70;99866.69;5138524;27;20031;-71
2021/09/01 04:56:30;;;;;;;10.02;4.43;;;;;;;22.23;51.52;99867.28;5142242;27;20031;-67
2021/09/01 04:58:55;;;;;;;8.45;4.50;;;;;;;22.16;51.94;99869.28;5144141;27;20031;-66
2021/09/01 05:01:21;;;;;;;11.18;5.45;;;;;;;22.14;52.27;99874.91;5143509;27;20220;-71
2021/09/01 05:03:46;;;;;;;8.90;6.85;;;;;;;22.34;52.08;99873.72;5143093;27;20053;-66
2021/09/01 05:06:12;;;;;;;8.90;4.32;;;;;;;22.34;52.43;99868.31;5143654;27;20047;-67
2021/09/01 05:08:37;;;;;;;14.20;4.78;;;;;;;22.45;51.29;99864.78;5143905;27;20031;-71
2021/09/01 05:11:02;;;;;;;5.85;3.75;;;;;;;22.60;50.50;99868.66;5142431;27;20023;-67
2021/09/01 05:13:28;;;;;;;9.23;4.57;;;;;;;22.78;49.82;99864.97;5142653;27;20038;-71
2021/09/01 05:15:53;;;;;;;12.10;4.40;;;;;;;22.99;49.74;99862.75;5143585;27;20035;-71
2021/09/01 05:18:19;;;;;;;6.15;4.10;;;;;;;23.09;49.48;99847.56;5143400;27;20027;-67
2021/09/01 05:20:47;;;;;;;10.10;4.85;;;;;;;23.45;48.50;99845.50;5144406;27;20027;-71
2021/09/01 05:23:16;;;;;;;10.10;4.43;;;;;;;23.53;48.09;99837.81;5144367;27;20221;-70
2021/09/01 05:25:56;;;;;;;9.18;4.28;;;;;;;23.59;48.47;99846.03;5144300;27;20038;-71
2021/09/01 05:28:34;;;;;;;8.85;4.35;;;;;;;23.50;47.83;99843.69;5124875;27;20023;-66
2021/09/01 05:31:02;;;;;;;12.85;6.50;;;;;;;23.55;47.96;99843.81;5144086;27;20115;-72
2021/09/01 05:33:30;;;;;;;8.25;5.00;;;;;;;23.50;48.26;99840.19;5144082;27;20088;-71
2021/09/01 05:35:56;;;;;;;9.27;6.10;;;;;;;23.26;48.72;99847.59;5144080;27;20232;-67
2021/09/01 05:38:22;;;;;;;9.27;5.03;;;;;;;23.42;48.60;99844.09;5143823;27;20027;-72
2021/09/01 05:40:50;;;;;;;12.05;4.82;;;;;;;23.30;48.22;99843.34;5143987;27;20038;-67
2021/09/01 05:43:18;;;;;;;7.35;4.43;;;;;;;23.68;47.96;99842.69;5143602;27;20038;-71
2021/09/01 05:45:49;;;;;;;10.07;4.20;;;;;;;24.13;46.18;99836.38;5143537;27;20054;-66
2021/09/01 05:48:15;;;;;;;13.90;5.03;;;;;;;24.19;46.58;99838.91;5143814;27;20296;-72
2021/09/01 05:50:44;;;;;;;6.93;4.03;;;;;;;24.79;45.33;99837.28;5134851;27;20079;-72
2021/09/01 05:53:10;;;;;;;11.02;4.68;;;;;;;24.58;45.83;99811.03;5132540;27;20031;-72
2021/09/01 05:55:41;;;;;;;13.20;5.57;;;;;;;24.91;45.85;99832.53;5132165;27;20127;-72
2021/09/01 05:58:11;;;;;;;8.57;5.40;;;;;;;24.78;45.45;99830.22;5132304;27;20036;-73
2021/09/01 06:00:40;;;;;;;15.27;5.40;;;;;;;24.87;45.83;99828.69;5131760;27;20040;-72
2021/09/01 06:03:17;;;;;;;4.60;3.80;;;;;;;25.17;44.67;99825.56;5130493;27;20090;-67
2021/09/01 06:05:44;;;;;;;12.88;4.50;;;;;;;25.21;44.54;99818.56;5132207;27;20031;-72
2021/09/01 06:08:11;;;;;;;6.93;4.00;;;;;;;25.66;43.06;99820.06;5141771;27;20102;-67
2021/09/01 06:10:37;;;;;;;11.02;4.82;;;;;;;25.96;41.92;99822.19;5142159;27;20291;-67
2021/09/01 06:13:12;;;;;;;12.15;4.00;;;;;;;25.85;41.39;99820.50;5142931;27;20035;-72
2021/09/01 06:15:40;;;;;;;7.50;4.10;;;;;;;26.18;40.45;99822.09;5142121;27;20042;-71
2021/09/01 06:18:06;;;;;;;10.95;3.80;;;;;;;26.15;40.34;99825.31;5143150;27;20221;-72
2021/09/01 06:20:33;;;;;;;9.75;3.97;;;;;;;26.23;39.94;99825.66;5142690;27;20084;-72
2021/09/01 06:23:00;;;;;;;8.13;3.97;;;;;;;26.45;40.05;99820.09;5141647;27;20327;-72
2021/09/01 06:25:26;;;;;;;15.70;4.30;;;;;;;26.57;38.75;99817.97;5142573;27;20041;-67
2021/09/01 06:27:51;;;;;;;5.78;3.60;;;;;;;26.69;38.74;99832.16;5143032;27;20039;-73
2021/09/01 06:30:17;;;;;;;8.77;4.03;;;;;;;26.88;38.31;99824.34;5142897;27;20091;-67
2021/09/01 06:32:43;;;;;;;5.85;3.92;;;;;;;26.91;38.14;99826.53;5142872;27;20313;-68
2021/09/01 06:35:08;;;;;;;9.55;3.88;;;;;;;26.73;38.85;99808.00;5142622;27;20240;-72
2021/09/01 06:37:36;;;;;;;9.05;4.03;;;;;;;27.28;37.67;99834.53;5142616;27;20038;-67
2021/09/01 06:40:02;;;;;;;5.10;3.40;;;;;;;27.44;36.92;99832.66;5142214;27;20035;-67
2021/09/01 06:42:28;;;;;;;13.95;3.65;;;;;;;27.52;36.09;99836.75;5142375;27;20348;-67
2021/09/01 06:44:53;;;;;;;11.88;3.63;;;;;;;27.37;36.57;99834.81;5142638;27;20023;-67
2021/09/01 06:47:19;;;;;;;5.10;3.78;;;;;;;27.22;37.16;99841.06;5142759;27;20038;-68
2021/09/01 06:49:44;;;;;;;7.88;3.38;;;;;;;26.84;37.40;99836.81;5142091;27;20053;-72
2021/09/01 06:52:10;;;;;;;5.78;3.35;;;;;;;26.65;38.25;99847.34;5142428;27;20027;-72
2021/09/01 06:54:36;;;;;;;4.78;3.67;;;;;;;26.63;38.60;99845.97;5134633;27;20061;-72
2021/09/01 06:57:01;;;;;;;8.32;3.45;;;;;;;27.30;38.15;99842.44;5131957;27;20027;-72
2021/09/01 06:59:27;;;;;;;7.40;3.55;;;;;;;27.44;36.89;99850.88;5129329;27;20412;-67
2021/09/01 07:01:52;;;;;;;6.68;3.00;;;;;;;27.54;36.61;99840.00;5129956;27;20027;-72
2021/09/01 07:04:17;;;;;;;6.07;2.92;;;;;;;27.61;35.98;99846.03;5132484;27;20044;-72
2021/09/01 07:06:43;;;;;;;4.95;3.10;;;;;;;27.17;37.10;99848.38;5129941;27;20037;-68
2021/09/01 07:09:08;;;;;;;6.43;3.15;;;;;;;27.16;37.57;99861.16;5133041;27;20349;-67
2021/09/01 07:11:34;;;;;;;4.03;2.78;;;;;;;26.80;37.28;99862.88;5132452;27;20024;-68
2021/09/01 07:13:59;;;;;;;5.07;2.72;;;;;;;26.60;37.48;99860.91;5129298;27;20037;-67
2021/09/01 07:16:25;;;;;;;9.18;3.47;;;;;;;26.38;37.67;99860.25;5133957;27;20046;-71
2021/09/01 07:18:50;;;;;;;7.78;2.90;;;;;;;26.35;37.92;99860.75;5133082;27;20030;-72
2021/09/01 07:21:16;;;;;;;3.90;3.13;;;;;;;26.50;37.98;99866.28;5140337;27;20035;-72
2021/09/01 07:23:42;;;;;;;9.57;3.20;;;;;;;26.54;37.88;99866.56;5141598;27;20339;-72
2021/09/01 07:26:10;;;;;;;8.05;3.22;;;;;;;27.07;37.43;99868.19;5141455;27;20027;-67
2021/09/01 07:28:37;;;;;;;6.15;2.90;;;;;;;27.09;37.61;99857.06;5141225;27;20025;-71
2021/09/01 07:31:03;;;;;;;6.85;3.70;;;;;;;27.22;36.72;99862.00;5142234;27;20050;-68
2021/09/01 07:33:29;;;;;;;7.82;3.20;;;;;;;27.23;36.45;99859.00;5141726;27;20096;-68
2021/09/01 07:35:54;;;;;;;6.80;3.13;;;;;;;27.61;36.11;99851.47;5142387;27;20031;-67
2021/09/01 07:38:20;;;;;;;6.60;3.20;;;;;;;27.93;35.56;99852.00;5146339;27;20301;-70
2021/09/01 07:40:45;;;;;;;7.20;3.22;;;;;;;27.95;34.74;99849.00;5146188;27;20272;-68
2021/09/01 07:43:11;;;;;;;5.07;2.88;;;;;;;27.97;34.71;99847.66;5146187;27;20037;-71
2021/09/01 07:45:36;;;;;;;9.90;3.30;;;;;;;28.51;34.47;99841.59;5146131;27;20042;-68
2021/09/01 07:48:02;;;;;;;9.27;3.70;;;;;;;29.18;33.38;99842.97;5144474;27;20026;-69
2021/09/01 07:50:30;;;;;;;8.07;3.53;;;;;;;29.31;32.54;99827.06;5145587;27;20019;-68
2021/09/01 07:53:00;;;;;;;6.50;3.97;;;;;;;29.53;31.88;99827.47;5145128;27;20038;-71
2021/09/01 07:55:26;;;;;;;8.05;4.22;;;;;;;29.62;31.87;99824.94;5145676;27;20068;-71
2021/09/01 07:57:52;;;;;;;3.83;3.15;;;;;;;29.51;31.46;99825.03;5145615;27;20022;-72
2021/09/01 08:00:17;;;;;;;8.30;3.70;;;;;;;29.68;31.78;99821.88;5145816;27;20228;-67
2021/09/01 08:02:43;;;;;;;4.30;3.00;;;;;;;30.31;30.69;99818.31;5145845;27;20026;-72
2021/09/01 08:05:09;;;;;;;10.93;3.40;;;;;;;30.86;30.05;99822.31;5145146;27;20057;-67
2021/09/01 08:07:34;;;;;;;6.55;2.58;;;;;;;31.12;29.24;99814.56;5125592;27;20035;-73
2021/09/01 08:10:00;;;;;;;3.70;2.45;;;;;;;31.25;28.93;99811.13;5145514;27;20229;-73
2021/09/01 08:12:25;;;;;;;6.68;2.85;;;;;;;30.75;28.32;99815.34;5145537;27;20031;-73
2021/09/01 08:14:51;;;;;;;4.00;2.90;;;;;;;30.42;28.70;99806.97;5145497;27;20037;-67
2021/09/01 08:17:16;;;;;;;4.50;3.58;;;;;;;30.74;29.48;99811.81;5145753;27;20035;-68
2021/09/01 08:19:43;;;;;;;6.55;2.55;;;;;;;30.99;27.77;99813.38;5144992;27;20035;-67
2021/09/01 08:22:09;;;;;;;5.30;2.47;;;;;;;31.22;27.61;99809.00;5145298;27;20035;-73
2021/09/01 08:24:37;;;;;;;3.15;2.47;;;;;;;31.54;26.39;99799.19;5145581;27;20023;-72
2021/09/01 08:27:03;;;;;;;6.35;2.80;;;;;;;31.10;27.94;99803.91;5144612;27;20408;-72
2021/09/01 08:29:28;;;;;;;5.65;2.85;;;;;;;30.58;28.09;99801.34;5145656;27;20090;-68
2021/09/01 08:31:54;;;;;;;4.55;2.40;;;;;;;30.22;28.67;99800.94;5145304;27;20038;-72
2021/09/01 08:34:20;;;;;;;5.25;2.30;;;;;;;30.13;29.30;99800.72;5145343;27;20037;-72
2021/09/01 08:36:46;;;;;;;8.48;2.95;;;;;;;29.68;30.66;99793.78;5145216;27;20369;-72
2021/09/01 08:39:11;;;;;;;4.22;3.83;;;;;;;29.90;30.08;99788.66;5145333;27;20023;-72
2021/09/01 08:41:37;;;;;;;3.70;2.58;;;;;;;30.07;29.78;99791.78;5126810;27;20046;-72
2021/09/01 08:44:03;;;;;;;6.57;2.60;;;;;;;30.45;28.83;99791.94;5144762;27;20046;-72
2021/09/01 08:46:33;;;;;;;3.80;2.90;;;;;;;30.27;29.26;99793.50;5145286;27;20094;-73
2021/09/01 08:49:00;;;;;;;3.35;2.60;;;;;;;30.17;29.53;99783.50;5143809;27;20060;-67
2021/09/01 08:51:25;;;;;;;4.10;2.20;;;;;;;29.83;30.49;99778.06;5144833;27;20042;-73
2021/09/01 08:53:55;;;;;;;8.95;2.40;;;;;;;30.17;30.17;99778.06;5139193;27;20240;-73
2021/09/01 08:56:21;;;;;;;7.15;2.78;;;;;;;30.48;29.74;99772.22;5135201;27;20030;-68
2021/09/01 08:58:47;;;;;;;8.35;2.70;;;;;;;30.42;28.99;99766.00;5133621;27;20200;-72
2021/09/01 09:01:43;;;;;;;3.88;2.80;;;;;;;30.72;28.12;99764.00;5133206;27;20042;-73
2021/09/01 09:04:30;;;;;;;6.20;3.00;;;;;;;30.81;27.91;99776.72;5131424;27;20043;-73
2021/09/01 09:07:05;;;;;;;5.78;2.90;;;;;;;30.68;28.75;99765.69;5135611;27;20035;-67
2021/09/01 09:09:34;;;;;;;4.18;2.00;;;;;;;31.07;27.59;99758.00;5133529;27;20147;-67
2021/09/01 09:12:01;;;;;;;2.80;2.50;;;;;;;31.17;28.01;99746.13;5135215;27;20027;-73
2021/09/01 09:14:28;;;;;;;6.07;2.65;;;;;;;31.06;28.34;99748.19;5136321;27;20039;-73
2021/09/01 09:17:01;;;;;;;3.40;2.85;;;;;;;30.93;27.85;99740.72;5143482;27;20039;-73
2021/09/01 09:19:45;;;;;;;4.60;2.60;;;;;;;30.98;27.62;99742.56;5141090;27;20313;-73
2021/09/01 09:22:12;;;;;;;7.80;5.38;;;;;;;31.01;28.35;99741.97;5143041;27;20321;-68
2021/09/01 09:24:37;;;;;;;6.57;2.47;;;;;;;30.81;28.32;99743.09;5143439;27;20043;-73
2021/09/01 09:27:06;;;;;;;8.85;2.22;;;;;;;30.93;27.48;99742.66;5124391;27;20035;-68
2021/09/01 09:29:32;;;;;;;3.60;2.17;;;;;;;31.00;27.35;99732.16;5141661;27;20023;-67
2021/09/01 09:32:02;;;;;;;5.65;1.80;;;;;;;30.92;27.45;99743.75;5143016;27;20042;-73
2021/09/01 09:34:43;;;;;;;8.32;1.90;;;;;;;31.17;26.67;99727.00;5142214;27;20046;-68
2021/09/01 09:37:15;;;;;;;4.50;1.88;;;;;;;30.94;27.01;99717.75;5143385;27;20174;-73
2021/09/01 09:39:46;;;;;;;4.68;1.85;;;;;;;30.91;26.80;99715.59;5142548;27;20023;-73
2021/09/01 09:45:33;;;;;;;1.83;1.73;;;;;;;30.91;27.40;99698.41;5141984;27;20038;-73
2021/09/01 09:47:58;;;;;;;3.67;1.52;;;;;;;30.81;27.38;99708.38;5142322;27;20225;-72
2021/09/01 09:50:24;;;;;;;7.65;3.28;;;;;;;30.70;27.11;99692.44;5141253;27;20027;-72
2021/09/01 09:52:50;;;;;;;2.35;1.80;;;;;;;30.53;27.57;99689.38;5143055;27;20054;-73
2021/09/01 09:55:20;;;;;;;3.53;1.80;;;;;;;30.55;27.52;99681.69;5141937;27;20322;-73
2021/09/01 09:57:50;;;;;;;2.75;2.40;;;;;;;30.43;27.84;99685.66;5143167;27;20023;-73
2021/09/01 10:00:20;;;;;;;4.07;2.10;;;;;;;30.47;27.93;99683.97;5141221;27;20023;-68
2021/09/01 10:02:46;;;;;;;3.65;1.90;;;;;;;30.79;27.95;99672.31;5142703;27;20031;-68
2021/09/01 10:05:14;;;;;;;4.03;1.80;;;;;;;30.70;27.62;99673.28;5142348;27;20054;-68
2021/09/01 10:07:40;;;;;;;3.70;2.55;;;;;;;30.68;27.57;99668.13;5131973;27;20050;-73
2021/09/01 10:10:07;;;;;;;6.30;3.80;;;;;;;30.57;27.13;99663.06;5135908;27;20039;-68
2021/09/01 10:12:38;;;;;;;2.95;1.80;;;;;;;30.55;27.71;99665.28;5130633;27;20035;-73
2021/09/01 10:15:07;;;;;;;7.05;2.10;;;;;;;30.61;26.62;99661.41;5133139;27;20323;-68
2021/09/01 10:17:38;;;;;;;10.50;3.10;;;;;;;30.32;26.47;99659.59;5132976;27;20057;-68
2021/09/01 10:20:08;;;;;;;2.40;1.90;;;;;;;30.17;26.39;99652.44;5134765;27;20302;-73
2021/09/01 10:22:34;;;;;;;4.18;3.22;;;;;;;30.07;26.73;99654.44;5134191;27;20053;-73
2021/09/01 10:25:00;;;;;;;4.63;1.55;;;;;;;30.26;26.34;99655.31;5117560;27;20040;-73
2021/09/01 10:27:28;;;;;;;5.60;1.70;;;;;;;30.34;26.94;99657.38;5134597;27;20029;-73
2021/09/01 10:30:12;;;;;;;7.90;3.47;;;;;;;30.29;26.94;99654.72;5131227;27;20073;-68
2021/09/01 10:32:43;;;;;;;3.42;2.25;;;;;;;30.04;26.61;99638.66;5133344;27;20094;-71
2021/09/01 10:35:17;;;;;;;7.78;2.80;;;;;;;30.03;26.61;99635.09;5137675;27;20062;-68
2021/09/01 10:37:44;;;;;;;4.05;2.13;;;;;;;30.30;27.30;99628.22;5135639;27;20039;-68
2021/09/01 10:40:13;;;;;;;11.32;2.20;;;;;;;30.33;26.44;99622.97;5134100;27;20149;-72
2021/09/01 10:42:43;;;;;;;3.83;2.40;;;;;;;30.21;26.88;99630.81;5134360;27;20058;-73
2021/09/01 10:45:13;;;;;;;3.47;2.10;;;;;;;30.06;27.12;99628.25;5135505;27;20035;-73
2021/09/01 10:47:51;;;;;;;5.95;3.35;;;;;;;30.09;27.80;99620.28;5117810;27;20045;-68
2021/09/01 10:50:18;;;;;;;3.20;1.85;;;;;;;30.15;27.32;99604.63;5134146;27;20103;-73
2021/09/01 10:53:20;;;;;;;13.10;2.97;;;;;;;30.15;27.47;99615.56;5135190;27;20027;-69
2021/09/01 10:55:55;;;;;;;3.40;2.55;;;;;;;30.21;26.61;99619.88;5129513;27;20066;-73
2021/09/01 10:58:30;;;;;;;6.10;1.85;;;;;;;30.36;27.30;99611.47;5115550;27;20102;-73
2021/09/01 11:01:06;;;;;;;8.10;2.05;;;;;;;30.12;26.32;99619.69;5135873;27;20076;-72
2021/09/01 11:03:48;;;;;;;5.57;1.80;;;;;;;30.15;26.98;99607.38;5131210;27;20078;-68
2021/09/01 11:06:16;;;;;;;4.25;2.40;;;;;;;30.17;26.94;99608.72;5136260;27;20043;-73
2021/09/01 11:09:19;;;;;;;4.38;1.83;;;;;;;30.37;26.66;99604.91;5136927;27;20031;-73
2021/09/01 11:11:55;;;;;;;3.63;1.70;;;;;;;30.50;26.43;99600.59;5135159;27;20296;-73
2021/09/01 11:14:42;;;;;;;7.15;2.20;;;;;;;30.39;26.24;99605.41;5115557;27;20331;-68
2021/09/01 11:17:10;;;;;;;2.80;1.63;;;;;;;30.42;27.00;99595.81;5136876;27;20046;-68
2021/09/01 11:19:37;;;;;;;4.38;1.52;;;;;;;30.50;26.36;99597.88;5133758;27;20039;-73
2021/09/01 11:22:06;;;;;;;1.98;1.55;;;;;;;30.45;26.15;99589.75;5131523;27;20038;-72
2021/09/01 11:24:42;;;;;;;2.15;1.50;;;;;;;30.48;26.42;99591.91;5134151;27;20061;-73
2021/09/01 11:27:13;;;;;;;2.67;2.28;;;;;;;30.39;25.78;99577.28;5133490;27;20047;-68
2021/09/01 11:29:39;;;;;;;5.03;2.00;;;;;;;30.16;25.22;99590.69;5136214;27;20098;-73
2021/09/01 11:32:05;;;;;;;1.83;1.50;;;;;;;30.02;25.77;99584.34;5133856;27;20031;-68
2021/09/01 11:34:31;;;;;;;3.28;1.17;;;;;;;30.04;25.54;99589.50;5135970;27;20094;-73